createdAt,value
2022-08-03T00:00:24.315Z,98562.22
2022-08-03T00:03:25.951Z,98556.56
2022-08-03T00:06:27.513Z,98553.41
2022-08-03T00:09:35.560Z,98557.25
2022-08-03T00:12:37.485Z,98557.94
2022-08-03T00:15:42.453Z,98560.19
2022-08-03T00:18:43.968Z,98556.00
2022-08-03T00:21:45.523Z,98552.81
2022-08-03T00:24:47.088Z,98554.56
2022-08-03T00:27:50.410Z,98546.78
2022-08-03T00:30:52.547Z,98549.56
2022-08-03T00:33:59.100Z,98539.94
2022-08-03T00:37:04.189Z,98544.63
2022-08-03T00:40:06.312Z,98545.66
2022-08-03T00:43:08.286Z,98545.81
2022-08-03T00:46:09.733Z,98544.91
2022-08-03T00:49:11.433Z,98542.19
2022-08-03T00:52:13.495Z,98543.19
2022-08-03T00:55:15.118Z,98546.75
2022-08-03T00:58:16.686Z,98542.25
2022-08-03T01:01:18.248Z,98537.03
2022-08-03T01:04:19.828Z,98536.25
2022-08-03T01:07:33.829Z,98542.00
2022-08-03T01:10:54.925Z,98539.44
2022-08-03T01:14:21.322Z,98531.69
2022-08-03T01:17:44.169Z,98528.34
2022-08-03T01:20:49.655Z,98533.78
2022-08-03T01:24:12.998Z,98529.06
2022-08-03T01:27:42.663Z,98523.88
2022-08-03T01:30:44.313Z,98523.09
2022-08-03T01:33:48.396Z,98517.84
2022-08-03T01:36:53.138Z,98522.38
2022-08-03T01:39:56.089Z,98515.13
2022-08-03T01:42:58.680Z,98517.44
2022-08-03T01:46:00.286Z,98523.31
2022-08-03T01:49:08.936Z,98521.59
2022-08-03T01:52:11.303Z,98510.56
2022-08-03T01:55:12.865Z,98509.69
2022-08-03T01:58:15.395Z,98504.56
2022-08-03T02:01:17.074Z,98505.41
2022-08-03T02:04:18.702Z,98503.75
2022-08-03T02:07:20.262Z,98497.94
2022-08-03T02:10:22.193Z,98505.06
2022-08-03T02:13:36.683Z,98504.34
2022-08-03T02:16:38.248Z,98498.03
2022-08-03T02:19:40.001Z,98507.13
2022-08-03T02:22:42.361Z,98505.34
2022-08-03T02:26:03.257Z,98507.00
2022-08-03T02:29:08.450Z,98511.97
2022-08-03T02:32:18.104Z,98500.16
2022-08-03T02:35:19.881Z,98505.75
2022-08-03T02:38:23.674Z,98497.97
2022-08-03T02:41:30.790Z,98489.22
2022-08-03T02:44:32.778Z,98495.34
2022-08-03T02:47:54.373Z,98504.22
2022-08-03T02:50:58.179Z,98488.31
2022-08-03T02:54:02.511Z,98497.31
2022-08-03T02:57:04.079Z,98496.53
2022-08-03T03:00:06.257Z,98491.31
2022-08-03T03:03:07.813Z,98486.63
2022-08-03T03:06:11.297Z,98489.53
2022-08-03T03:09:12.904Z,98486.03
2022-08-03T03:12:14.873Z,98492.25
2022-08-03T03:15:16.377Z,98485.22
2022-08-03T03:18:22.282Z,98478.13
2022-08-03T03:21:24.502Z,98488.81
2022-08-03T03:24:26.073Z,98489.88
2022-08-03T03:27:27.634Z,98483.91
2022-08-03T03:30:31.555Z,98481.47
2022-08-03T03:33:36.477Z,98484.16
2022-08-03T03:36:38.072Z,98487.38
2022-08-03T03:39:39.898Z,98485.81
2022-08-03T03:42:41.494Z,98496.28
2022-08-03T03:45:43.097Z,98492.13
2022-08-03T03:48:44.674Z,98487.78
2022-08-03T03:51:46.243Z,98494.91
2022-08-03T03:54:47.800Z,98497.47
2022-08-03T03:57:49.339Z,98499.31
2022-08-03T04:00:50.992Z,98501.03
2022-08-03T04:03:52.577Z,98499.44
2022-08-03T04:07:12.847Z,98501.06
2022-08-03T04:10:35.880Z,98499.06
2022-08-03T04:13:39.993Z,98497.41
2022-08-03T04:16:44.018Z,98499.03
2022-08-03T04:19:51.475Z,98496.56
2022-08-03T04:22:53.043Z,98500.91
2022-08-03T04:25:54.600Z,98504.47
2022-08-03T04:28:56.187Z,98501.81
2022-08-03T04:31:58.779Z,98496.63
2022-08-03T04:35:00.447Z,98507.09
2022-08-03T04:38:03.412Z,98507.75
2022-08-03T04:41:05.063Z,98509.47
2022-08-03T04:44:06.639Z,98504.19
2022-08-03T04:47:10.919Z,98512.09
2022-08-03T04:50:15.015Z,98513.88
2022-08-03T04:53:19.545Z,98516.44
2022-08-03T04:56:21.314Z,98512.88
2022-08-03T04:59:22.861Z,98518.66
2022-08-03T05:02:24.409Z,98510.50
2022-08-03T05:05:26.014Z,98519.00
2022-08-03T05:08:46.879Z,98517.03
2022-08-03T05:11:50.459Z,98512.47
2022-08-03T05:14:52.034Z,98521.09
2022-08-03T05:17:53.647Z,98520.88
2022-08-03T05:20:55.212Z,98525.94
2022-08-03T05:23:56.743Z,98520.25
2022-08-03T05:26:58.334Z,98529.72
2022-08-03T05:30:29.703Z,98524.91
2022-08-03T05:33:21.457Z,98528.81
2022-08-03T05:36:23.111Z,98525.88
2022-08-03T05:39:24.655Z,98528.28
2022-08-03T05:42:26.231Z,98523.53
2022-08-03T05:45:29.739Z,98523.09
2022-08-03T05:48:31.302Z,98524.63
2022-08-03T05:51:33.121Z,98527.72
2022-08-03T05:54:56.326Z,98521.22
2022-08-03T05:57:56.825Z,98520.81
2022-08-03T06:00:59.060Z,98515.97
2022-08-03T06:04:00.618Z,98516.66
2022-08-03T06:07:02.206Z,98506.69
2022-08-03T06:10:37.409Z,98510.72
2022-08-03T06:13:26.403Z,98504.97
2022-08-03T06:16:27.966Z,98503.63
2022-08-03T06:19:29.566Z,98509.41
2022-08-03T06:22:31.172Z,98505.47
2022-08-03T06:25:32.752Z,98510.41
2022-08-03T06:28:51.513Z,98502.84
2022-08-03T06:31:53.682Z,98509.22
2022-08-03T06:34:55.265Z,98515.47
2022-08-03T06:37:57.089Z,98514.00
2022-08-03T06:40:58.520Z,98512.56
2022-08-03T06:44:03.965Z,98510.84
2022-08-03T06:47:05.961Z,98513.69
2022-08-03T06:50:12.619Z,98509.69
2022-08-03T06:53:21.222Z,98507.47
2022-08-03T06:56:23.108Z,98511.16
2022-08-03T07:00:07.552Z,98509.56
2022-08-03T07:02:46.523Z,98507.94
2022-08-03T07:05:49.180Z,98516.16
2022-08-03T07:08:53.636Z,98516.75
2022-08-03T07:11:57.278Z,98510.81
2022-08-03T07:15:01.772Z,98508.88
2022-08-03T07:18:04.364Z,98512.34
2022-08-03T07:21:05.913Z,98506.56
2022-08-03T07:24:07.524Z,98505.50
2022-08-03T07:27:09.511Z,98504.75
2022-08-03T07:30:11.422Z,98499.75
2022-08-03T07:33:12.995Z,98505.41
2022-08-03T07:36:14.406Z,98505.94
2022-08-03T07:39:18.010Z,98504.91
2022-08-03T07:42:20.505Z,98498.66
2022-08-03T07:45:23.439Z,98493.53
2022-08-03T07:48:25.147Z,98488.00
2022-08-03T07:51:26.705Z,98483.44
2022-08-03T07:54:28.253Z,98480.59
2022-08-03T07:57:29.935Z,98479.03
2022-08-03T08:00:31.601Z,98471.75
2022-08-03T08:03:52.348Z,98465.63
2022-08-03T08:06:54.563Z,98461.97
2022-08-03T08:09:56.098Z,98461.34
2022-08-03T08:12:57.652Z,98467.59
2022-08-03T08:15:59.219Z,98461.22
2022-08-03T08:19:02.063Z,98468.84
2022-08-03T08:22:03.643Z,98469.63
2022-08-03T08:25:07.432Z,98471.22
2022-08-03T08:28:22.436Z,98467.16
2022-08-03T08:31:30.573Z,98466.34
2022-08-03T08:34:32.412Z,98467.00
2022-08-03T08:37:34.056Z,98466.25
2022-08-03T08:40:35.704Z,98470.06
2022-08-03T08:43:37.317Z,98463.16
2022-08-03T08:46:38.891Z,98456.72
2022-08-03T08:49:53.414Z,98464.81
2022-08-03T08:53:03.790Z,98464.34
2022-08-03T08:56:05.498Z,98469.50
2022-08-03T08:59:07.110Z,98465.69
2022-08-03T09:02:08.661Z,98480.84
2022-08-03T09:05:18.473Z,98467.88
2022-08-03T09:08:20.293Z,98464.34
2022-08-03T09:12:00.962Z,98467.72
2022-08-03T09:15:00.900Z,98469.69
2022-08-03T09:18:07.016Z,98461.59
2022-08-03T09:21:37.284Z,98468.50
2022-08-03T09:25:14.756Z,98461.06
2022-08-03T09:28:58.110Z,98467.69
2022-08-03T09:31:45.352Z,98465.63
2022-08-03T09:34:48.628Z,98445.00
2022-08-03T09:38:15.940Z,98450.31
2022-08-03T09:41:17.989Z,98457.06
2022-08-03T09:44:25.853Z,98452.63
2022-08-03T09:47:29.389Z,98446.34
2022-08-03T09:50:30.947Z,98448.13
2022-08-03T09:53:32.486Z,98445.81
2022-08-03T09:56:44.165Z,98440.22
2022-08-03T09:59:45.703Z,98439.66
2022-08-03T10:02:50.567Z,98444.59
2022-08-03T10:05:56.057Z,98446.53
2022-08-03T10:09:11.674Z,98440.06
2022-08-03T10:12:13.580Z,98433.56
2022-08-03T10:16:21.915Z,98427.06
2022-08-03T10:18:40.002Z,98434.56
2022-08-03T10:21:46.547Z,98430.59
2022-08-03T10:25:09.171Z,98404.59
2022-08-03T10:28:12.639Z,98414.25
2022-08-03T10:31:14.413Z,98402.56
2022-08-03T10:34:22.882Z,98414.72
2022-08-03T10:37:26.119Z,98410.34
2022-08-03T10:40:49.400Z,98413.13
2022-08-03T10:44:05.864Z,98411.56
2022-08-03T10:47:07.442Z,98413.28
2022-08-03T10:50:09.024Z,98421.50
2022-08-03T10:53:10.611Z,98410.84
2022-08-03T10:56:51.116Z,98399.47
2022-08-03T10:59:55.295Z,98397.31
2022-08-03T11:03:14.433Z,98388.69
2022-08-03T11:06:24.857Z,98402.91
2022-08-03T11:09:26.518Z,98392.91
2022-08-03T11:12:32.629Z,98381.56
2022-08-03T11:15:34.585Z,98380.66
2022-08-03T11:18:36.118Z,98367.78
2022-08-03T11:21:52.670Z,98368.59
2022-08-03T11:24:54.424Z,98368.19
2022-08-03T11:28:24.766Z,98371.41
2022-08-03T11:31:48.505Z,98372.25
2022-08-03T11:35:08.765Z,98368.59
2022-08-03T11:38:10.615Z,98367.69
2022-08-03T11:41:45.236Z,98369.72
2022-08-03T11:44:47.561Z,98362.84
2022-08-03T11:47:50.628Z,98362.44
2022-08-03T11:50:52.986Z,98367.56
2022-08-03T11:54:02.719Z,98347.63
2022-08-03T11:57:04.412Z,98347.28
2022-08-03T12:00:28.466Z,98348.91
2022-08-03T12:03:32.574Z,98343.41
2022-08-03T12:07:00.247Z,98336.28
2022-08-03T12:10:15.164Z,98338.94
2022-08-03T12:14:44.892Z,98325.41
2022-08-03T12:16:38.910Z,98333.78
2022-08-03T12:19:43.748Z,98334.34
2022-08-03T12:22:45.343Z,98334.84
2022-08-03T12:25:47.534Z,98341.75
2022-08-03T12:28:51.156Z,98331.16
2022-08-03T12:31:52.730Z,98332.94
2022-08-03T12:34:54.406Z,98323.44
2022-08-03T12:38:10.598Z,98318.19
2022-08-03T12:41:13.699Z,98308.88
2022-08-03T12:44:15.245Z,98296.97
2022-08-03T12:47:17.111Z,98296.44
2022-08-03T12:50:32.764Z,98290.41
2022-08-03T12:53:35.493Z,98298.13
2022-08-03T12:56:46.344Z,98307.50
2022-08-03T12:59:53.257Z,98299.41
2022-08-03T13:03:38.357Z,98278.19
2022-08-03T13:06:27.548Z,98272.19
2022-08-03T13:09:29.914Z,98281.75
2022-08-03T13:12:32.545Z,98272.34
2022-08-03T13:15:38.674Z,98272.50
2022-08-03T13:18:49.510Z,98272.44
2022-08-03T13:22:02.122Z,98274.50
2022-08-03T13:25:06.206Z,98275.13
2022-08-03T13:28:12.341Z,98270.66
2022-08-03T13:31:16.852Z,98268.00
2022-08-03T13:34:23.054Z,98257.94
2022-08-03T13:37:25.930Z,98248.28
2022-08-03T13:40:30.032Z,98249.47
2022-08-03T13:43:32.036Z,98239.84
2022-08-03T13:46:34.474Z,98244.22
2022-08-03T13:49:37.352Z,98240.56
2022-08-03T13:52:39.025Z,98230.69
2022-08-03T13:55:40.574Z,98237.66
2022-08-03T13:58:42.137Z,98230.34
2022-08-03T14:01:54.984Z,98223.88
2022-08-03T14:04:57.372Z,98219.50
2022-08-03T14:08:03.851Z,98230.03
2022-08-03T14:11:06.557Z,98224.25
2022-08-03T14:14:08.118Z,98212.00
2022-08-03T14:17:09.728Z,98205.19
2022-08-03T14:20:37.441Z,98208.63
2022-08-03T14:23:35.037Z,98220.53
2022-08-03T14:26:36.612Z,98220.66
2022-08-03T14:29:38.162Z,98210.28
2022-08-03T14:32:39.762Z,98207.25
2022-08-03T14:35:41.302Z,98209.59
2022-08-03T14:38:42.820Z,98218.78
2022-08-03T14:41:44.443Z,98215.22
2022-08-03T14:44:46.637Z,98208.56
2022-08-03T14:50:29.530Z,98217.06
2022-08-03T14:51:10.230Z,98202.63
2022-08-03T14:54:11.839Z,98202.19
2022-08-03T14:57:13.402Z,98199.09
2022-08-03T15:00:15.418Z,98198.78
2022-08-03T15:03:20.298Z,98197.50
2022-08-03T15:06:22.110Z,98186.38
2022-08-03T15:09:24.232Z,98196.13
2022-08-03T15:12:26.153Z,98180.50
2022-08-03T15:15:27.807Z,98179.19
2022-08-03T15:18:29.348Z,98186.38
2022-08-03T15:21:46.834Z,98179.00
2022-08-03T15:24:49.210Z,98165.31
2022-08-03T15:28:03.941Z,98168.03
2022-08-03T15:31:06.771Z,98169.94
2022-08-03T15:34:08.311Z,98157.19
2022-08-03T15:37:15.084Z,98153.47
2022-08-03T15:40:18.287Z,98160.41
2022-08-03T15:43:20.509Z,98155.50
2022-08-03T15:46:30.076Z,98154.44
2022-08-03T15:49:31.814Z,98145.06
2022-08-03T15:52:35.930Z,98151.00
2022-08-03T15:55:37.504Z,98141.59
2022-08-03T15:59:04.117Z,98141.69
2022-08-03T16:02:00.870Z,98136.91
2022-08-03T16:05:02.527Z,98131.03
2022-08-03T16:08:06.302Z,98127.81
2022-08-03T16:11:10.962Z,98127.59
2022-08-03T16:14:34.678Z,98130.09
2022-08-03T16:17:34.067Z,98129.66
2022-08-03T16:20:35.704Z,98129.66
2022-08-03T16:23:39.633Z,98120.81
2022-08-03T16:26:44.640Z,98128.94
2022-08-03T16:29:46.297Z,98127.94
2022-08-03T16:32:48.060Z,98131.50
2022-08-03T16:35:49.706Z,98112.69
2022-08-03T16:38:51.327Z,98129.63
2022-08-03T16:41:53.762Z,98119.97
2022-08-03T16:45:02.769Z,98119.09
2022-08-03T16:48:05.958Z,98108.91
2022-08-03T16:51:07.776Z,98120.38
2022-08-03T16:54:12.571Z,98119.47
2022-08-03T16:57:15.694Z,98115.25
2022-08-03T17:00:33.648Z,98116.38
2022-08-03T17:03:57.053Z,98119.72
2022-08-03T17:06:59.225Z,98120.88
2022-08-03T17:10:01.675Z,98115.69
2022-08-03T17:13:03.415Z,98128.56
2022-08-03T17:16:07.980Z,98125.31
2022-08-03T17:19:09.529Z,98120.38
2022-08-03T17:22:18.070Z,98128.81
2022-08-03T17:25:22.120Z,98134.94
2022-08-03T17:28:51.914Z,98137.22
2022-08-03T17:31:58.764Z,98129.50
2022-08-03T17:35:00.344Z,98135.53
2022-08-03T17:38:05.744Z,98133.16
2022-08-03T17:41:10.802Z,98128.19
2022-08-03T17:44:31.984Z,98138.47
2022-08-03T17:47:42.370Z,98134.50
2022-08-03T17:50:47.050Z,98135.78
2022-08-03T17:54:18.525Z,98145.69
2022-08-03T17:58:01.274Z,98149.44
2022-08-03T18:04:55.213Z,98167.44
2022-08-03T18:07:59.348Z,98177.81
2022-08-03T18:11:14.847Z,98195.34
2022-08-03T18:14:37.581Z,98196.41
2022-08-03T18:17:57.965Z,98196.13
2022-08-03T18:21:02.314Z,98211.00
2022-08-03T18:24:08.382Z,98222.88
2022-08-03T18:27:11.524Z,98214.75
2022-08-03T18:30:13.783Z,98212.50
2022-08-03T18:34:16.977Z,98218.56
2022-08-03T18:36:38.427Z,98224.00
2022-08-03T18:39:50.144Z,98227.56
2022-08-03T18:42:54.842Z,98225.50
2022-08-03T18:45:57.919Z,98230.22
2022-08-03T18:49:08.332Z,98242.94
2022-08-03T18:52:17.985Z,98243.16
2022-08-03T18:56:01.404Z,98253.53
2022-08-03T18:59:30.254Z,98251.47
2022-08-03T19:02:52.603Z,98241.97
2022-08-03T19:06:02.696Z,98235.75
2022-08-03T19:09:12.917Z,98250.09
2022-08-03T19:12:30.927Z,98254.38
2022-08-03T19:15:36.891Z,98269.09
2022-08-03T19:18:42.991Z,98275.06
2022-08-03T19:21:45.282Z,98272.97
2022-08-03T19:24:47.734Z,98278.25
2022-08-03T19:27:49.407Z,98282.41
2022-08-03T19:30:53.644Z,98283.91
2022-08-03T19:33:59.858Z,98287.50
2022-08-03T19:37:02.716Z,98285.97
2022-08-03T19:40:06.031Z,98289.06
2022-08-03T19:43:17.841Z,98296.41
2022-08-03T19:46:20.111Z,98294.56
2022-08-03T19:49:26.206Z,98295.25
2022-08-03T19:52:48.854Z,98294.56
2022-08-03T19:55:51.464Z,98294.41
2022-08-03T19:58:54.658Z,98290.38
2022-08-03T20:01:56.365Z,98288.22
2022-08-03T20:04:59.958Z,98290.91
2022-08-03T20:08:05.291Z,98291.13
2022-08-03T20:11:06.904Z,98288.75
2022-08-03T20:14:08.695Z,98293.44
2022-08-03T20:17:10.250Z,98291.25
2022-08-03T20:20:12.440Z,98296.91
2022-08-03T20:23:16.821Z,98289.81
2022-08-03T20:26:20.319Z,98289.94
2022-08-03T20:30:06.812Z,98291.09
2022-08-03T20:32:55.202Z,98286.44
2022-08-03T20:35:56.833Z,98288.44
2022-08-03T20:38:59.057Z,98284.72
2022-08-03T20:42:01.957Z,98295.34
2022-08-03T20:45:05.679Z,98287.22
2022-08-03T20:48:14.610Z,98285.88
2022-08-03T20:51:20.121Z,98286.53
2022-08-03T20:54:39.765Z,98286.44
2022-08-03T20:57:42.311Z,98289.22
2022-08-03T21:00:51.455Z,98285.47
2022-08-03T21:03:55.745Z,98284.31
2022-08-03T21:07:03.586Z,98280.50
2022-08-03T21:10:18.172Z,98274.00
2022-08-03T21:12:56.256Z,98152.06
2022-08-03T21:13:33.433Z,98286.88
2022-08-03T21:16:35.196Z,98282.13
2022-08-03T21:19:37.443Z,98284.13
2022-08-03T21:22:54.189Z,98276.41
2022-08-03T21:25:56.328Z,98280.84
2022-08-03T21:28:57.878Z,98276.41
2022-08-03T21:31:59.524Z,98270.00
2022-08-03T21:35:02.216Z,98275.38
2022-08-03T21:38:18.974Z,98279.31
2022-08-03T21:41:20.606Z,98274.75
2022-08-03T21:44:25.252Z,98276.38
2022-08-03T21:47:30.732Z,98274.91
2022-08-03T21:50:32.315Z,98273.25
2022-08-03T21:54:03.701Z,98273.59
2022-08-03T21:56:55.351Z,98276.13
2022-08-03T22:00:08.332Z,98269.00
2022-08-03T22:03:17.313Z,98269.31
2022-08-03T22:06:19.980Z,98271.56
2022-08-03T22:09:21.688Z,98270.28
2022-08-03T22:12:23.827Z,98272.25
2022-08-03T22:15:25.422Z,98264.97
2022-08-03T22:18:26.833Z,98275.44
2022-08-03T22:21:35.726Z,98274.03
2022-08-03T22:24:38.143Z,98273.00
2022-08-03T22:27:43.160Z,98278.94
2022-08-03T22:30:44.804Z,98274.31
2022-08-03T22:33:46.518Z,98276.75
2022-08-03T22:36:48.146Z,98273.94
2022-08-03T22:39:49.758Z,98293.50
2022-08-03T22:42:52.131Z,98286.28
2022-08-03T22:46:09.023Z,98278.19
2022-08-03T22:49:14.034Z,98278.84
2022-08-03T22:52:15.678Z,98285.41
2022-08-03T22:55:24.510Z,98282.31
2022-08-03T22:58:26.568Z,98284.81
2022-08-03T23:01:28.142Z,98289.63
2022-08-03T23:04:29.774Z,98286.03
2022-08-03T23:07:31.951Z,98287.47
2022-08-03T23:10:33.601Z,98293.22
2022-08-03T23:13:35.214Z,98293.03
2022-08-03T23:16:41.410Z,98293.00
2022-08-03T23:19:44.739Z,98294.31
2022-08-03T23:22:47.765Z,98286.34
2022-08-03T23:25:50.541Z,98291.97
2022-08-03T23:28:52.199Z,98296.56
2022-08-03T23:31:53.749Z,98289.69
2022-08-03T23:35:18.605Z,98289.66
2022-08-03T23:38:23.289Z,98290.75
2022-08-03T23:41:24.947Z,98286.19
2022-08-03T23:44:27.464Z,98282.78
2022-08-03T23:47:46.505Z,98284.09
2022-08-03T23:50:51.981Z,98292.59
2022-08-03T23:54:06.064Z,98284.09
2022-08-03T23:57:28.197Z,98279.53
